sensor_id;sensor_type;location;lat;lon;timestamp;pressure;altitude;pressure_sealevel;temperature;humidity
74163;BME280;62515;52.758;5.076;2024-02-23T00:01:14;98393.84;;;10.41;nan
74163;BME280;62515;52.758;5.076;2024-02-23T00:03:41;98400.28;;;10.71;nan
74163;BME280;62515;52.758;5.076;2024-02-23T00:06:08;98398.78;;;10.76;nan
74163;BME280;62515;52.758;5.076;2024-02-23T00:08:35;98411.72;;;11.34;nan
74163;BME280;62515;52.758;5.076;2024-02-23T00:11:02;98415.84;;;13.25;nan
74163;BME280;62515;52.758;5.076;2024-02-23T00:13:29;98420.06;;;11.62;nan
74163;BME280;62515;52.758;5.076;2024-02-23T00:15:57;98427.00;;;12.02;nan
74163;BME280;62515;52.758;5.076;2024-02-23T00:18:24;98426.53;;;11.76;nan
74163;BME280;62515;52.758;5.076;2024-02-23T00:20:51;98439.78;;;11.45;nan
74163;BME280;62515;52.758;5.076;2024-02-23T00:23:18;98448.97;;;10.87;nan
74163;BME280;62515;52.758;5.076;2024-02-23T00:25:45;98443.25;;;11.92;nan
74163;BME280;62515;52.758;5.076;2024-02-23T00:28:12;98458.06;;;11.09;nan
74163;BME280;62515;52.758;5.076;2024-02-23T00:30:38;98456.16;;;12.03;nan
74163;BME280;62515;52.758;5.076;2024-02-23T00:33:07;98462.78;;;12.90;nan
74163;BME280;62515;52.758;5.076;2024-02-23T00:35:33;98453.59;;;12.33;nan
74163;BME280;62515;52.758;5.076;2024-02-23T00:38:00;98477.59;;;12.10;nan
74163;BME280;62515;52.758;5.076;2024-02-23T00:40:27;98473.69;;;12.43;nan
74163;BME280;62515;52.758;5.076;2024-02-23T00:42:54;98488.25;;;12.33;nan
74163;BME280;62515;52.758;5.076;2024-02-23T00:45:21;98495.59;;;12.76;nan
74163;BME280;62515;52.758;5.076;2024-02-23T00:47:48;98506.00;;;12.48;nan
74163;BME280;62515;52.758;5.076;2024-02-23T00:50:17;98498.03;;;12.63;nan
74163;BME280;62515;52.758;5.076;2024-02-23T00:52:44;98500.56;;;11.88;nan
74163;BME280;62515;52.758;5.076;2024-02-23T00:55:10;98511.63;;;11.69;nan
74163;BME280;62515;52.758;5.076;2024-02-23T00:57:38;98505.84;;;11.96;nan
74163;BME280;62515;52.758;5.076;2024-02-23T01:00:06;98512.88;;;11.89;nan
74163;BME280;62515;52.758;5.076;2024-02-23T01:02:33;98526.78;;;12.07;nan
74163;BME280;62515;52.758;5.076;2024-02-23T01:04:59;98530.31;;;12.00;nan
74163;BME280;62515;52.758;5.076;2024-02-23T01:07:28;98529.19;;;12.71;nan
74163;BME280;62515;52.758;5.076;2024-02-23T01:09:55;98529.22;;;12.17;nan
74163;BME280;62515;52.758;5.076;2024-02-23T01:12:21;98533.94;;;11.68;nan
74163;BME280;62515;52.758;5.076;2024-02-23T01:14:48;98543.09;;;11.66;nan
74163;BME280;62515;52.758;5.076;2024-02-23T01:17:15;98544.38;;;11.23;nan
74163;BME280;62515;52.758;5.076;2024-02-23T01:19:43;98530.66;;;12.28;nan
74163;BME280;62515;52.758;5.076;2024-02-23T01:22:10;98554.91;;;11.71;nan
74163;BME280;62515;52.758;5.076;2024-02-23T01:24:38;98550.00;;;11.99;nan
74163;BME280;62515;52.758;5.076;2024-02-23T01:27:05;98555.38;;;11.28;nan
74163;BME280;62515;52.758;5.076;2024-02-23T01:29:32;98564.09;;;11.61;nan
74163;BME280;62515;52.758;5.076;2024-02-23T01:31:59;98563.13;;;12.00;nan
74163;BME280;62515;52.758;5.076;2024-02-23T01:34:25;98574.81;;;11.36;nan
74163;BME280;62515;52.758;5.076;2024-02-23T01:36:52;98576.63;;;11.36;nan
74163;BME280;62515;52.758;5.076;2024-02-23T01:39:19;98574.56;;;11.62;nan
74163;BME280;62515;52.758;5.076;2024-02-23T01:41:47;98576.44;;;12.00;nan
74163;BME280;62515;52.758;5.076;2024-02-23T01:44:14;98582.34;;;11.88;nan
74163;BME280;62515;52.758;5.076;2024-02-23T01:46:41;98586.13;;;11.46;nan
74163;BME280;62515;52.758;5.076;2024-02-23T01:49:09;98570.25;;;12.39;nan
74163;BME280;62515;52.758;5.076;2024-02-23T01:51:36;98587.34;;;11.12;nan
74163;BME280;62515;52.758;5.076;2024-02-23T01:54:03;98598.63;;;11.38;nan
74163;BME280;62515;52.758;5.076;2024-02-23T01:56:30;98600.72;;;12.14;nan
74163;BME280;62515;52.758;5.076;2024-02-23T01:58:59;98598.66;;;12.32;nan
74163;BME280;62515;52.758;5.076;2024-02-23T02:01:27;98603.94;;;12.01;nan
74163;BME280;62515;52.758;5.076;2024-02-23T02:03:54;98608.31;;;11.94;nan
74163;BME280;62515;52.758;5.076;2024-02-23T02:06:21;98611.28;;;11.99;nan
74163;BME280;62515;52.758;5.076;2024-02-23T02:08:48;98610.34;;;11.84;nan
74163;BME280;62515;52.758;5.076;2024-02-23T02:11:15;98608.25;;;11.47;nan
74163;BME280;62515;52.758;5.076;2024-02-23T02:13:42;98606.19;;;11.65;nan
74163;BME280;62515;52.758;5.076;2024-02-23T02:16:10;98609.88;;;12.50;nan
74163;BME280;62515;52.758;5.076;2024-02-23T02:18:37;98616.56;;;11.52;nan
74163;BME280;62515;52.758;5.076;2024-02-23T02:21:04;98622.88;;;11.67;nan
74163;BME280;62515;52.758;5.076;2024-02-23T02:23:31;98626.41;;;12.06;nan
74163;BME280;62515;52.758;5.076;2024-02-23T02:25:58;98617.94;;;10.91;nan
74163;BME280;62515;52.758;5.076;2024-02-23T02:28:26;98629.28;;;11.01;nan
74163;BME280;62515;52.758;5.076;2024-02-23T02:30:52;98638.53;;;11.46;nan
74163;BME280;62515;52.758;5.076;2024-02-23T02:33:22;98625.88;;;12.19;nan
74163;BME280;62515;52.758;5.076;2024-02-23T02:35:49;98646.88;;;11.19;nan
74163;BME280;62515;52.758;5.076;2024-02-23T02:38:16;98639.91;;;11.34;nan
74163;BME280;62515;52.758;5.076;2024-02-23T02:40:43;98633.91;;;11.08;nan
74163;BME280;62515;52.758;5.076;2024-02-23T02:43:09;98645.91;;;10.95;nan
74163;BME280;62515;52.758;5.076;2024-02-23T02:45:36;98635.06;;;10.97;nan
74163;BME280;62515;52.758;5.076;2024-02-23T02:48:03;98643.19;;;11.52;nan
74163;BME280;62515;52.758;5.076;2024-02-23T02:50:32;98640.09;;;11.08;nan
74163;BME280;62515;52.758;5.076;2024-02-23T02:52:59;98649.22;;;11.38;nan
74163;BME280;62515;52.758;5.076;2024-02-23T02:55:25;98656.47;;;11.84;nan
74163;BME280;62515;52.758;5.076;2024-02-23T02:57:52;98658.69;;;11.00;nan
74163;BME280;62515;52.758;5.076;2024-02-23T03:00:19;98661.84;;;11.76;nan
74163;BME280;62515;52.758;5.076;2024-02-23T03:02:46;98665.84;;;11.56;nan
74163;BME280;62515;52.758;5.076;2024-02-23T03:05:13;98660.28;;;11.98;nan
74163;BME280;62515;52.758;5.076;2024-02-23T03:07:41;98663.19;;;12.58;nan
74163;BME280;62515;52.758;5.076;2024-02-23T03:10:08;98675.03;;;12.17;nan
74163;BME280;62515;52.758;5.076;2024-02-23T03:12:35;98669.88;;;11.12;nan
74163;BME280;62515;52.758;5.076;2024-02-23T03:15:02;98674.03;;;12.10;nan
74163;BME280;62515;52.758;5.076;2024-02-23T03:17:29;98678.16;;;11.49;nan
74163;BME280;62515;52.758;5.076;2024-02-23T03:19:56;98680.75;;;11.97;nan
74163;BME280;62515;52.758;5.076;2024-02-23T03:22:23;98684.81;;;11.29;nan
74163;BME280;62515;52.758;5.076;2024-02-23T03:24:51;98685.25;;;11.97;nan
74163;BME280;62515;52.758;5.076;2024-02-23T03:27:18;98688.69;;;12.22;nan
74163;BME280;62515;52.758;5.076;2024-02-23T03:29:46;98686.38;;;12.19;nan
74163;BME280;62515;52.758;5.076;2024-02-23T03:32:12;98695.47;;;11.77;nan
74163;BME280;62515;52.758;5.076;2024-02-23T03:34:39;98686.81;;;11.75;nan
74163;BME280;62515;52.758;5.076;2024-02-23T03:37:06;98692.53;;;12.19;nan
74163;BME280;62515;52.758;5.076;2024-02-23T03:39:33;98696.44;;;11.92;nan
74163;BME280;62515;52.758;5.076;2024-02-23T03:42:01;98696.56;;;12.54;nan
74163;BME280;62515;52.758;5.076;2024-02-23T03:44:28;98695.00;;;12.68;nan
74163;BME280;62515;52.758;5.076;2024-02-23T03:46:55;98707.69;;;12.88;nan
74163;BME280;62515;52.758;5.076;2024-02-23T03:49:21;98708.56;;;12.11;nan
74163;BME280;62515;52.758;5.076;2024-02-23T03:51:48;98715.78;;;11.54;nan
74163;BME280;62515;52.758;5.076;2024-02-23T03:54:15;98715.22;;;12.15;nan
74163;BME280;62515;52.758;5.076;2024-02-23T03:56:42;98707.63;;;11.72;nan
74163;BME280;62515;52.758;5.076;2024-02-23T03:59:11;98717.16;;;12.29;nan
74163;BME280;62515;52.758;5.076;2024-02-23T04:01:38;98714.19;;;12.16;nan
74163;BME280;62515;52.758;5.076;2024-02-23T04:04:05;98725.03;;;12.15;nan
74163;BME280;62515;52.758;5.076;2024-02-23T04:06:33;98725.50;;;12.96;nan
74163;BME280;62515;52.758;5.076;2024-02-23T04:09:00;98727.88;;;12.13;nan
74163;BME280;62515;52.758;5.076;2024-02-23T04:11:27;98726.28;;;13.04;nan
74163;BME280;62515;52.758;5.076;2024-02-23T04:13:54;98722.44;;;12.76;nan
74163;BME280;62515;52.758;5.076;2024-02-23T04:16:24;98729.38;;;12.93;nan
74163;BME280;62515;52.758;5.076;2024-02-23T04:18:51;98731.13;;;13.09;nan
74163;BME280;62515;52.758;5.076;2024-02-23T04:21:18;98724.22;;;13.23;nan
74163;BME280;62515;52.758;5.076;2024-02-23T04:23:45;98735.69;;;13.00;nan
74163;BME280;62515;52.758;5.076;2024-02-23T04:26:13;98737.22;;;12.56;nan
74163;BME280;62515;52.758;5.076;2024-02-23T04:28:40;98733.97;;;12.30;nan
74163;BME280;62515;52.758;5.076;2024-02-23T04:31:08;98730.97;;;13.02;nan
74163;BME280;62515;52.758;5.076;2024-02-23T04:33:36;98726.69;;;13.84;nan
74163;BME280;62515;52.758;5.076;2024-02-23T04:36:04;98736.22;;;12.88;nan
74163;BME280;62515;52.758;5.076;2024-02-23T04:38:31;98739.44;;;12.83;nan
74163;BME280;62515;52.758;5.076;2024-02-23T04:40:58;98741.91;;;11.99;nan
74163;BME280;62515;52.758;5.076;2024-02-23T04:43:25;98743.78;;;11.82;nan
74163;BME280;62515;52.758;5.076;2024-02-23T04:45:52;98751.22;;;11.14;nan
74163;BME280;62515;52.758;5.076;2024-02-23T04:48:19;98752.88;;;12.12;nan
74163;BME280;62515;52.758;5.076;2024-02-23T04:50:47;98756.16;;;12.30;nan
74163;BME280;62515;52.758;5.076;2024-02-23T04:53:14;98755.25;;;11.75;nan
74163;BME280;62515;52.758;5.076;2024-02-23T04:55:41;98750.56;;;11.36;nan
74163;BME280;62515;52.758;5.076;2024-02-23T04:58:07;98757.06;;;11.58;nan
74163;BME280;62515;52.758;5.076;2024-02-23T05:00:34;98753.44;;;11.83;nan
74163;BME280;62515;52.758;5.076;2024-02-23T05:03:01;98758.94;;;11.82;nan
74163;BME280;62515;52.758;5.076;2024-02-23T05:05:29;98753.19;;;12.25;nan
74163;BME280;62515;52.758;5.076;2024-02-23T05:07:57;98749.97;;;13.38;nan
74163;BME280;62515;52.758;5.076;2024-02-23T05:10:24;98757.63;;;12.80;nan
74163;BME280;62515;52.758;5.076;2024-02-23T05:12:50;98763.41;;;11.89;nan
74163;BME280;62515;52.758;5.076;2024-02-23T05:15:17;98756.66;;;12.26;nan
74163;BME280;62515;52.758;5.076;2024-02-23T05:17:44;98749.56;;;12.02;nan
74163;BME280;62515;52.758;5.076;2024-02-23T05:20:12;98750.03;;;12.14;nan
74163;BME280;62515;52.758;5.076;2024-02-23T05:22:40;98753.38;;;12.16;nan
74163;BME280;62515;52.758;5.076;2024-02-23T05:25:08;98746.69;;;12.97;nan
74163;BME280;62515;52.758;5.076;2024-02-23T05:27:35;98744.44;;;11.92;nan
74163;BME280;62515;52.758;5.076;2024-02-23T05:30:03;98753.06;;;12.02;nan
74163;BME280;62515;52.758;5.076;2024-02-23T05:32:30;98761.84;;;12.27;nan
74163;BME280;62515;52.758;5.076;2024-02-23T05:34:56;98763.38;;;11.33;nan
74163;BME280;62515;52.758;5.076;2024-02-23T05:37:24;98756.09;;;11.75;nan
74163;BME280;62515;52.758;5.076;2024-02-23T05:39:51;98748.09;;;11.67;nan
74163;BME280;62515;52.758;5.076;2024-02-23T05:42:19;98755.72;;;13.27;nan
74163;BME280;62515;52.758;5.076;2024-02-23T05:44:46;98758.03;;;12.14;nan
74163;BME280;62515;52.758;5.076;2024-02-23T05:47:13;98766.56;;;12.56;nan
74163;BME280;62515;52.758;5.076;2024-02-23T05:49:39;98763.84;;;12.25;nan
74163;BME280;62515;52.758;5.076;2024-02-23T05:52:06;98759.66;;;12.23;nan
74163;BME280;62515;52.758;5.076;2024-02-23T05:54:33;98767.03;;;12.21;nan
74163;BME280;62515;52.758;5.076;2024-02-23T05:57:00;98768.19;;;12.73;nan
74163;BME280;62515;52.758;5.076;2024-02-23T05:59:28;98760.47;;;12.78;nan
74163;BME280;62515;52.758;5.076;2024-02-23T06:01:55;98757.72;;;12.09;nan
74163;BME280;62515;52.758;5.076;2024-02-23T06:04:22;98772.66;;;12.34;nan
74163;BME280;62515;52.758;5.076;2024-02-23T06:06:49;98757.09;;;11.74;nan
74163;BME280;62515;52.758;5.076;2024-02-23T06:09:16;98741.78;;;11.76;nan
74163;BME280;62515;52.758;5.076;2024-02-23T06:11:43;98750.06;;;11.33;nan
74163;BME280;62515;52.758;5.076;2024-02-23T06:14:10;98761.38;;;11.27;nan
74163;BME280;62515;52.758;5.076;2024-02-23T06:16:38;98749.69;;;12.17;nan
74163;BME280;62515;52.758;5.076;2024-02-23T06:19:05;98753.06;;;11.62;nan
74163;BME280;62515;52.758;5.076;2024-02-23T06:21:32;98762.63;;;10.82;nan
74163;BME280;62515;52.758;5.076;2024-02-23T06:23:58;98769.31;;;10.94;nan
74163;BME280;62515;52.758;5.076;2024-02-23T06:26:25;98755.44;;;10.75;nan
74163;BME280;62515;52.758;5.076;2024-02-23T06:28:52;98755.69;;;11.14;nan
74163;BME280;62515;52.758;5.076;2024-02-23T06:31:19;98774.06;;;10.83;nan
74163;BME280;62515;52.758;5.076;2024-02-23T06:33:47;98771.06;;;11.52;nan
74163;BME280;62515;52.758;5.076;2024-02-23T06:36:14;98765.34;;;10.98;nan
74163;BME280;62515;52.758;5.076;2024-02-23T06:38:41;98769.72;;;11.40;nan
74163;BME280;62515;52.758;5.076;2024-02-23T06:41:08;98768.72;;;11.25;nan
74163;BME280;62515;52.758;5.076;2024-02-23T06:43:34;98789.00;;;11.26;nan
74163;BME280;62515;52.758;5.076;2024-02-23T06:46:04;98783.41;;;11.85;nan
74163;BME280;62515;52.758;5.076;2024-02-23T06:48:31;98786.66;;;11.15;nan
74163;BME280;62515;52.758;5.076;2024-02-23T06:50:59;98790.41;;;12.02;nan
74163;BME280;62515;52.758;5.076;2024-02-23T06:53:26;98796.50;;;11.38;nan
74163;BME280;62515;52.758;5.076;2024-02-23T06:55:53;98799.88;;;11.57;nan
74163;BME280;62515;52.758;5.076;2024-02-23T06:58:20;98776.38;;;11.68;nan
74163;BME280;62515;52.758;5.076;2024-02-23T07:00:47;98793.88;;;11.46;nan
74163;BME280;62515;52.758;5.076;2024-02-23T07:03:14;98792.50;;;12.23;nan
74163;BME280;62515;52.758;5.076;2024-02-23T07:05:40;98788.84;;;12.24;nan
74163;BME280;62515;52.758;5.076;2024-02-23T07:08:09;98785.25;;;12.56;nan
74163;BME280;62515;52.758;5.076;2024-02-23T07:10:36;98773.34;;;12.28;nan
74163;BME280;62515;52.758;5.076;2024-02-23T07:13:03;98762.00;;;12.26;nan
74163;BME280;62515;52.758;5.076;2024-02-23T07:15:32;98752.03;;;13.28;nan
74163;BME280;62515;52.758;5.076;2024-02-23T07:17:59;98762.75;;;11.95;nan
74163;BME280;62515;52.758;5.076;2024-02-23T07:20:26;98773.03;;;11.58;nan
74163;BME280;62515;52.758;5.076;2024-02-23T07:22:53;98758.75;;;11.67;nan
74163;BME280;62515;52.758;5.076;2024-02-23T07:25:21;98775.69;;;12.78;nan
74163;BME280;62515;52.758;5.076;2024-02-23T07:27:48;98761.22;;;11.69;nan
74163;BME280;62515;52.758;5.076;2024-02-23T07:30:15;98778.69;;;12.28;nan
74163;BME280;62515;52.758;5.076;2024-02-23T07:32:42;98788.03;;;12.07;nan
74163;BME280;62515;52.758;5.076;2024-02-23T07:35:10;98786.72;;;12.03;nan
74163;BME280;62515;52.758;5.076;2024-02-23T07:37:37;98789.34;;;12.75;nan
74163;BME280;62515;52.758;5.076;2024-02-23T07:40:04;98787.63;;;12.43;nan
74163;BME280;62515;52.758;5.076;2024-02-23T07:42:33;98789.38;;;12.67;nan
74163;BME280;62515;52.758;5.076;2024-02-23T07:45:00;98790.38;;;11.54;nan
74163;BME280;62515;52.758;5.076;2024-02-23T07:47:26;98781.66;;;12.33;nan
74163;BME280;62515;52.758;5.076;2024-02-23T07:49:53;98783.38;;;12.18;nan
74163;BME280;62515;52.758;5.076;2024-02-23T07:52:20;98773.19;;;12.21;nan
74163;BME280;62515;52.758;5.076;2024-02-23T07:54:47;98779.47;;;12.44;nan
74163;BME280;62515;52.758;5.076;2024-02-23T07:57:14;98770.06;;;11.77;nan
74163;BME280;62515;52.758;5.076;2024-02-23T07:59:42;98769.50;;;12.30;nan
74163;BME280;62515;52.758;5.076;2024-02-23T08:02:09;98768.72;;;11.25;nan
74163;BME280;62515;52.758;5.076;2024-02-23T08:04:36;98765.22;;;12.60;nan
74163;BME280;62515;52.758;5.076;2024-02-23T08:07:03;98756.88;;;12.08;nan
74163;BME280;62515;52.758;5.076;2024-02-23T08:09:30;98758.25;;;11.47;nan
74163;BME280;62515;52.758;5.076;2024-02-23T08:11:57;98749.72;;;12.09;nan
74163;BME280;62515;52.758;5.076;2024-02-23T08:14:23;98747.91;;;12.09;nan
74163;BME280;62515;52.758;5.076;2024-02-23T08:16:52;98749.44;;;12.81;nan
74163;BME280;62515;52.758;5.076;2024-02-23T08:19:18;98748.56;;;11.95;nan
74163;BME280;62515;52.758;5.076;2024-02-23T08:21:45;98740.75;;;12.01;nan
74163;BME280;62515;52.758;5.076;2024-02-23T08:24:12;98736.09;;;11.31;nan
74163;BME280;62515;52.758;5.076;2024-02-23T08:26:39;98746.06;;;11.45;nan
74163;BME280;62515;52.758;5.076;2024-02-23T08:29:06;98727.66;;;12.31;nan
74163;BME280;62515;52.758;5.076;2024-02-23T08:31:33;98738.28;;;12.39;nan
74163;BME280;62515;52.758;5.076;2024-02-23T08:34:01;98749.53;;;12.10;nan
74163;BME280;62515;52.758;5.076;2024-02-23T08:36:28;98748.72;;;11.93;nan
74163;BME280;62515;52.758;5.076;2024-02-23T08:38:54;98743.41;;;11.29;nan
74163;BME280;62515;52.758;5.076;2024-02-23T08:41:21;98745.63;;;12.37;nan
74163;BME280;62515;52.758;5.076;2024-02-23T08:43:48;98740.59;;;11.79;nan
74163;BME280;62515;52.758;5.076;2024-02-23T08:46:15;98759.72;;;12.06;nan
74163;BME280;62515;52.758;5.076;2024-02-23T08:48:42;98754.06;;;6.94;nan
74163;BME280;62515;52.758;5.076;2024-02-23T08:51:10;98775.66;;;6.89;nan
74163;BME280;62515;52.758;5.076;2024-02-23T08:53:37;98772.47;;;6.46;nan
74163;BME280;62515;52.758;5.076;2024-02-23T08:56:06;98774.63;;;6.31;nan
74163;BME280;62515;52.758;5.076;2024-02-23T08:58:33;98777.28;;;6.01;nan
74163;BME280;62515;52.758;5.076;2024-02-23T09:00:59;98761.31;;;5.82;nan
74163;BME280;62515;52.758;5.076;2024-02-23T09:03:26;98763.47;;;5.88;nan
74163;BME280;62515;52.758;5.076;2024-02-23T09:05:53;98763.63;;;5.96;nan
74163;BME280;62515;52.758;5.076;2024-02-23T09:08:22;98756.97;;;5.92;nan
74163;BME280;62515;52.758;5.076;2024-02-23T09:10:48;98766.13;;;5.88;nan
74163;BME280;62515;52.758;5.076;2024-02-23T09:13:15;98745.69;;;5.69;nan
74163;BME280;62515;52.758;5.076;2024-02-23T09:15:42;98745.69;;;5.69;nan
74163;BME280;62515;52.758;5.076;2024-02-23T09:18:09;98741.88;;;5.82;nan
74163;BME280;62515;52.758;5.076;2024-02-23T09:20:36;98714.41;;;5.85;nan
74163;BME280;62515;52.758;5.076;2024-02-23T09:23:03;98748.69;;;6.06;nan
74163;BME280;62515;52.758;5.076;2024-02-23T09:25:31;98744.19;;;6.27;nan
74163;BME280;62515;52.758;5.076;2024-02-23T09:27:58;98743.91;;;6.20;nan
74163;BME280;62515;52.758;5.076;2024-02-23T09:30:25;98743.97;;;6.40;nan
74163;BME280;62515;52.758;5.076;2024-02-23T09:32:51;98724.66;;;6.49;nan
74163;BME280;62515;52.758;5.076;2024-02-23T09:35:18;98719.19;;;6.41;nan
74163;BME280;62515;52.758;5.076;2024-02-23T09:37:45;98744.91;;;6.39;nan
74163;BME280;62515;52.758;5.076;2024-02-23T09:40:12;98722.66;;;6.41;nan
74163;BME280;62515;52.758;5.076;2024-02-23T09:42:41;98749.84;;;6.62;nan
74163;BME280;62515;52.758;5.076;2024-02-23T09:45:10;98736.91;;;6.59;nan
74163;BME280;62515;52.758;5.076;2024-02-23T09:47:38;98750.19;;;6.98;nan
74163;BME280;62515;52.758;5.076;2024-02-23T09:50:06;98761.44;;;6.80;nan
74163;BME280;62515;52.758;5.076;2024-02-23T09:52:33;98755.25;;;6.61;nan
74163;BME280;62515;52.758;5.076;2024-02-23T09:55:00;98763.19;;;6.61;nan
74163;BME280;62515;52.758;5.076;2024-02-23T09:57:26;98759.19;;;6.66;nan
74163;BME280;62515;52.758;5.076;2024-02-23T09:59:55;98767.00;;;6.97;nan
74163;BME280;62515;52.758;5.076;2024-02-23T10:02:22;98758.63;;;6.63;nan
74163;BME280;62515;52.758;5.076;2024-02-23T10:04:49;98765.09;;;6.99;nan
74163;BME280;62515;52.758;5.076;2024-02-23T10:07:18;98747.81;;;6.95;nan
74163;BME280;62515;52.758;5.076;2024-02-23T10:09:45;98754.06;;;7.03;nan
74163;BME280;62515;52.758;5.076;2024-02-23T10:12:12;98748.09;;;7.20;nan
74163;BME280;62515;52.758;5.076;2024-02-23T10:14:41;98757.41;;;7.63;nan
74163;BME280;62515;52.758;5.076;2024-02-23T10:17:09;98703.50;;;7.64;nan
74163;BME280;62515;52.758;5.076;2024-02-23T10:19:36;98751.84;;;7.56;nan
74163;BME280;62515;52.758;5.076;2024-02-23T10:22:03;98747.56;;;8.02;nan
74163;BME280;62515;52.758;5.076;2024-02-23T10:24:30;98752.44;;;7.97;nan
74163;BME280;62515;52.758;5.076;2024-02-23T10:26:56;98760.31;;;8.53;nan
74163;BME280;62515;52.758;5.076;2024-02-23T10:29:23;98761.03;;;8.18;nan
74163;BME280;62515;52.758;5.076;2024-02-23T10:31:52;98769.38;;;8.13;nan
74163;BME280;62515;52.758;5.076;2024-02-23T10:34:24;98776.34;;;8.24;nan
74163;BME280;62515;52.758;5.076;2024-02-23T10:36:52;98772.59;;;8.17;nan
74163;BME280;62515;52.758;5.076;2024-02-23T10:39:19;98777.38;;;8.04;nan
74163;BME280;62515;52.758;5.076;2024-02-23T10:41:56;98780.66;;;8.25;nan
74163;BME280;62515;52.758;5.076;2024-02-23T10:44:24;98796.81;;;8.41;nan
74163;BME280;62515;52.758;5.076;2024-02-23T10:46:52;98791.31;;;8.52;nan
74163;BME280;62515;52.758;5.076;2024-02-23T10:49:24;98782.81;;;8.76;nan
74163;BME280;62515;52.758;5.076;2024-02-23T10:51:51;98786.84;;;8.53;nan
74163;BME280;62515;52.758;5.076;2024-02-23T10:54:18;98790.09;;;8.74;nan
74163;BME280;62515;52.758;5.076;2024-02-23T10:56:47;98798.53;;;8.60;nan
74163;BME280;62515;52.758;5.076;2024-02-23T10:59:14;98808.97;;;8.34;nan
74163;BME280;62515;52.758;5.076;2024-02-23T11:01:41;98807.03;;;8.17;nan
74163;BME280;62515;52.758;5.076;2024-02-23T11:04:08;98812.88;;;8.20;nan
74163;BME280;62515;52.758;5.076;2024-02-23T11:06:37;98826.25;;;8.38;nan
74163;BME280;62515;52.758;5.076;2024-02-23T11:09:05;98817.06;;;8.13;nan
74163;BME280;62515;52.758;5.076;2024-02-23T11:11:32;98818.72;;;8.33;nan
74163;BME280;62515;52.758;5.076;2024-02-23T11:14:02;98785.69;;;8.28;nan
74163;BME280;62515;52.758;5.076;2024-02-23T11:16:31;98834.50;;;8.25;nan
74163;BME280;62515;52.758;5.076;2024-02-23T11:19:04;98838.13;;;8.34;nan
74163;BME280;62515;52.758;5.076;2024-02-23T11:21:34;98825.56;;;8.17;nan
74163;BME280;62515;52.758;5.076;2024-02-23T11:24:04;98844.53;;;8.22;nan
74163;BME280;62515;52.758;5.076;2024-02-23T11:26:31;98838.84;;;8.07;nan
74163;BME280;62515;52.758;5.076;2024-02-23T11:28:58;98843.72;;;8.12;nan
74163;BME280;62515;52.758;5.076;2024-02-23T11:31:29;98856.53;;;8.72;nan
74163;BME280;62515;52.758;5.076;2024-02-23T11:33:56;98850.81;;;8.94;nan
74163;BME280;62515;52.758;5.076;2024-02-23T11:36:24;98848.16;;;9.22;nan
74163;BME280;62515;52.758;5.076;2024-02-23T11:38:54;98846.41;;;9.30;nan
74163;BME280;62515;52.758;5.076;2024-02-23T11:41:24;98855.06;;;9.15;nan
74163;BME280;62515;52.758;5.076;2024-02-23T11:43:52;98852.63;;;9.21;nan
74163;BME280;62515;52.758;5.076;2024-02-23T11:46:19;98852.09;;;9.18;nan
74163;BME280;62515;52.758;5.076;2024-02-23T11:48:46;98877.91;;;8.98;nan
74163;BME280;62515;52.758;5.076;2024-02-23T11:51:14;98877.75;;;8.72;nan
74163;BME280;62515;52.758;5.076;2024-02-23T11:53:42;98878.91;;;8.60;nan
74163;BME280;62515;52.758;5.076;2024-02-23T11:56:09;98873.16;;;8.28;nan
74163;BME280;62515;52.758;5.076;2024-02-23T11:58:38;98871.16;;;8.39;nan
74163;BME280;62515;52.758;5.076;2024-02-23T12:01:04;98880.66;;;9.06;nan
74163;BME280;62515;52.758;5.076;2024-02-23T12:03:31;98878.44;;;9.29;nan
74163;BME280;62515;52.758;5.076;2024-02-23T12:05:58;98865.19;;;9.02;nan
74163;BME280;62515;52.758;5.076;2024-02-23T12:08:26;98889.88;;;8.75;nan
74163;BME280;62515;52.758;5.076;2024-02-23T12:10:54;98908.06;;;8.60;nan
74163;BME280;62515;52.758;5.076;2024-02-23T12:13:21;98905.28;;;8.52;nan
74163;BME280;62515;52.758;5.076;2024-02-23T12:15:52;98909.75;;;8.61;nan
74163;BME280;62515;52.758;5.076;2024-02-23T12:18:21;98902.91;;;8.59;nan
74163;BME280;62515;52.758;5.076;2024-02-23T12:20:48;98911.38;;;8.72;nan
74163;BME280;62515;52.758;5.076;2024-02-23T12:23:15;98919.25;;;8.91;nan
74163;BME280;62515;52.758;5.076;2024-02-23T12:25:52;98918.09;;;9.30;nan
74163;BME280;62515;52.758;5.076;2024-02-23T12:28:19;98914.81;;;8.82;nan
74163;BME280;62515;52.758;5.076;2024-02-23T12:30:46;98909.47;;;8.64;nan
74163;BME280;62515;52.758;5.076;2024-02-23T12:33:16;98937.53;;;8.57;nan
74163;BME280;62515;52.758;5.076;2024-02-23T12:35:44;98940.72;;;8.98;nan
74163;BME280;62515;52.758;5.076;2024-02-23T12:38:11;98924.94;;;9.06;nan
74163;BME280;62515;52.758;5.076;2024-02-23T12:40:38;98925.13;;;9.22;nan
74163;BME280;62515;52.758;5.076;2024-02-23T12:43:04;98903.84;;;8.77;nan
74163;BME280;62515;52.758;5.076;2024-02-23T12:45:31;98898.34;;;8.51;nan
74163;BME280;62515;52.758;5.076;2024-02-23T12:47:58;98901.56;;;8.45;nan
74163;BME280;62515;52.758;5.076;2024-02-23T12:50:29;98914.66;;;8.27;nan
74163;BME280;62515;52.758;5.076;2024-02-23T12:52:56;98907.72;;;8.07;nan
74163;BME280;62515;52.758;5.076;2024-02-23T12:55:23;98905.06;;;8.17;nan
74163;BME280;62515;52.758;5.076;2024-02-23T12:57:50;98916.78;;;8.05;nan
74163;BME280;62515;52.758;5.076;2024-02-23T13:00:17;98919.69;;;8.21;nan
74163;BME280;62515;52.758;5.076;2024-02-23T13:02:44;98916.94;;;8.22;nan
74163;BME280;62515;52.758;5.076;2024-02-23T13:05:11;98916.78;;;8.14;nan
74163;BME280;62515;52.758;5.076;2024-02-23T13:07:39;98922.16;;;8.61;nan
74163;BME280;62515;52.758;5.076;2024-02-23T13:10:07;98929.94;;;8.72;nan
74163;BME280;62515;52.758;5.076;2024-02-23T13:12:34;98935.63;;;8.86;nan
74163;BME280;62515;52.758;5.076;2024-02-23T13:15:01;98929.50;;;9.13;nan
74163;BME280;62515;52.758;5.076;2024-02-23T13:17:28;98942.16;;;9.46;nan
74163;BME280;62515;52.758;5.076;2024-02-23T13:19:55;98947.75;;;9.88;nan
74163;BME280;62515;52.758;5.076;2024-02-23T13:22:31;98918.16;;;10.19;nan
74163;BME280;62515;52.758;5.076;2024-02-23T13:24:59;98947.31;;;10.46;nan